sensor_id;sensor_type;location;lat;lon;timestamp;P1;durP1;ratioP1;P2;durP2;ratioP2
15841;SDS011;8021;48.022;11.812;2022-08-21T00:02:19;0.20;;;0.20;;
15841;SDS011;8021;48.022;11.812;2022-08-21T00:04:48;0.30;;;0.30;;
15841;SDS011;8021;48.022;11.812;2022-08-21T00:07:24;0.28;;;0.20;;
15841;SDS011;8021;48.022;11.812;2022-08-21T00:09:52;0.20;;;0.20;;
15841;SDS011;8021;48.022;11.812;2022-08-21T00:12:20;0.20;;;0.20;;
15841;SDS011;8021;48.022;11.812;2022-08-21T00:14:48;0.20;;;0.20;;
15841;SDS011;8021;48.022;11.812;2022-08-21T00:17:20;0.20;;;0.20;;
15841;SDS011;8021;48.022;11.812;2022-08-21T00:19:48;0.20;;;0.20;;
15841;SDS011;8021;48.022;11.812;2022-08-21T00:22:16;0.30;;;0.20;;
15841;SDS011;8021;48.022;11.812;2022-08-21T00:24:45;0.20;;;0.20;;
15841;SDS011;8021;48.022;11.812;2022-08-21T00:27:12;0.20;;;0.20;;
15841;SDS011;8021;48.022;11.812;2022-08-21T00:29:40;0.20;;;0.20;;
15841;SDS011;8021;48.022;11.812;2022-08-21T00:32:07;0.20;;;0.20;;
15841;SDS011;8021;48.022;11.812;2022-08-21T00:34:35;0.30;;;0.30;;
15841;SDS011;8021;48.022;11.812;2022-08-21T00:37:02;0.20;;;0.20;;
15841;SDS011;8021;48.022;11.812;2022-08-21T00:39:30;0.20;;;0.20;;
15841;SDS011;8021;48.022;11.812;2022-08-21T00:41:59;0.20;;;0.17;;
15841;SDS011;8021;48.022;11.812;2022-08-21T00:44:26;0.30;;;0.20;;
15841;SDS011;8021;48.022;11.812;2022-08-21T00:46:54;0.30;;;0.22;;
15841;SDS011;8021;48.022;11.812;2022-08-21T00:49:21;0.20;;;0.20;;
15841;SDS011;8021;48.022;11.812;2022-08-21T00:51:50;0.20;;;0.20;;
15841;SDS011;8021;48.022;11.812;2022-08-21T00:54:19;0.20;;;0.20;;
15841;SDS011;8021;48.022;11.812;2022-08-21T00:56:50;0.30;;;0.20;;
15841;SDS011;8021;48.022;11.812;2022-08-21T00:59:19;0.20;;;0.20;;
15841;SDS011;8021;48.022;11.812;2022-08-21T01:01:48;0.20;;;0.20;;
15841;SDS011;8021;48.022;11.812;2022-08-21T01:04:16;0.20;;;0.10;;
15841;SDS011;8021;48.022;11.812;2022-08-21T01:06:43;0.30;;;0.20;;
15841;SDS011;8021;48.022;11.812;2022-08-21T01:09:11;0.20;;;0.20;;
15841;SDS011;8021;48.022;11.812;2022-08-21T01:11:39;0.20;;;0.10;;
15841;SDS011;8021;48.022;11.812;2022-08-21T01:14:09;0.20;;;0.20;;
15841;SDS011;8021;48.022;11.812;2022-08-21T01:16:39;0.20;;;0.10;;
15841;SDS011;8021;48.022;11.812;2022-08-21T01:19:07;0.20;;;0.10;;
15841;SDS011;8021;48.022;11.812;2022-08-21T01:21:38;0.20;;;0.20;;
15841;SDS011;8021;48.022;11.812;2022-08-21T01:24:06;0.30;;;0.10;;
15841;SDS011;8021;48.022;11.812;2022-08-21T01:26:35;0.20;;;0.20;;
15841;SDS011;8021;48.022;11.812;2022-08-21T01:29:14;0.22;;;0.20;;
15841;SDS011;8021;48.022;11.812;2022-08-21T01:31:44;0.20;;;0.10;;
15841;SDS011;8021;48.022;11.812;2022-08-21T01:34:12;0.30;;;0.20;;
15841;SDS011;8021;48.022;11.812;2022-08-21T01:36:43;0.30;;;0.20;;
15841;SDS011;8021;48.022;11.812;2022-08-21T01:39:11;0.20;;;0.20;;
15841;SDS011;8021;48.022;11.812;2022-08-21T01:41:39;0.30;;;0.20;;
15841;SDS011;8021;48.022;11.812;2022-08-21T01:44:06;0.20;;;0.20;;
15841;SDS011;8021;48.022;11.812;2022-08-21T01:46:34;0.30;;;0.20;;
15841;SDS011;8021;48.022;11.812;2022-08-21T01:49:02;0.20;;;0.17;;
15841;SDS011;8021;48.022;11.812;2022-08-21T01:51:30;0.30;;;0.20;;
15841;SDS011;8021;48.022;11.812;2022-08-21T01:53:59;0.20;;;0.20;;
15841;SDS011;8021;48.022;11.812;2022-08-21T01:56:26;0.20;;;0.20;;
15841;SDS011;8021;48.022;11.812;2022-08-21T01:58:54;0.30;;;0.22;;
15841;SDS011;8021;48.022;11.812;2022-08-21T02:01:22;0.20;;;0.20;;
15841;SDS011;8021;48.022;11.812;2022-08-21T02:03:50;0.20;;;0.20;;
15841;SDS011;8021;48.022;11.812;2022-08-21T02:06:18;0.20;;;0.10;;
15841;SDS011;8021;48.022;11.812;2022-08-21T02:08:45;0.30;;;0.20;;
15841;SDS011;8021;48.022;11.812;2022-08-21T02:11:14;0.20;;;0.20;;
15841;SDS011;8021;48.022;11.812;2022-08-21T02:13:42;0.20;;;0.20;;
15841;SDS011;8021;48.022;11.812;2022-08-21T02:16:10;0.20;;;0.20;;
15841;SDS011;8021;48.022;11.812;2022-08-21T02:18:42;0.20;;;0.20;;
15841;SDS011;8021;48.022;11.812;2022-08-21T02:21:10;0.20;;;0.20;;
15841;SDS011;8021;48.022;11.812;2022-08-21T02:23:37;0.30;;;0.20;;
15841;SDS011;8021;48.022;11.812;2022-08-21T02:26:05;0.30;;;0.20;;
15841;SDS011;8021;48.022;11.812;2022-08-21T02:28:35;0.20;;;0.20;;
15841;SDS011;8021;48.022;11.812;2022-08-21T02:31:03;0.30;;;0.20;;
15841;SDS011;8021;48.022;11.812;2022-08-21T02:33:31;0.30;;;0.20;;
15841;SDS011;8021;48.022;11.812;2022-08-21T02:35:59;0.20;;;0.10;;
15841;SDS011;8021;48.022;11.812;2022-08-21T02:38:30;0.30;;;0.20;;
15841;SDS011;8021;48.022;11.812;2022-08-21T02:40:59;0.28;;;0.20;;
15841;SDS011;8021;48.022;11.812;2022-08-21T02:43:30;0.20;;;0.13;;
15841;SDS011;8021;48.022;11.812;2022-08-21T02:45:59;0.30;;;0.20;;
15841;SDS011;8021;48.022;11.812;2022-08-21T02:48:30;0.20;;;0.20;;
15841;SDS011;8021;48.022;11.812;2022-08-21T02:50:59;0.20;;;0.20;;
15841;SDS011;8021;48.022;11.812;2022-08-21T02:53:27;0.30;;;0.20;;
15841;SDS011;8021;48.022;11.812;2022-08-21T02:55:56;0.30;;;0.20;;
15841;SDS011;8021;48.022;11.812;2022-08-21T02:58:28;0.30;;;0.20;;
15841;SDS011;8021;48.022;11.812;2022-08-21T03:00:58;0.30;;;0.20;;
15841;SDS011;8021;48.022;11.812;2022-08-21T03:03:26;0.20;;;0.20;;
15841;SDS011;8021;48.022;11.812;2022-08-21T03:05:54;0.20;;;0.20;;
15841;SDS011;8021;48.022;11.812;2022-08-21T03:08:22;0.30;;;0.30;;
15841;SDS011;8021;48.022;11.812;2022-08-21T03:10:53;0.30;;;0.25;;
15841;SDS011;8021;48.022;11.812;2022-08-21T03:13:21;0.30;;;0.20;;
15841;SDS011;8021;48.022;11.812;2022-08-21T03:15:49;0.30;;;0.30;;
15841;SDS011;8021;48.022;11.812;2022-08-21T03:18:18;0.30;;;0.25;;
15841;SDS011;8021;48.022;11.812;2022-08-21T03:20:46;0.30;;;0.20;;
15841;SDS011;8021;48.022;11.812;2022-08-21T03:23:14;0.30;;;0.20;;
15841;SDS011;8021;48.022;11.812;2022-08-21T03:25:44;0.20;;;0.20;;
15841;SDS011;8021;48.022;11.812;2022-08-21T03:28:13;0.30;;;0.20;;
15841;SDS011;8021;48.022;11.812;2022-08-21T03:30:41;0.30;;;0.20;;
15841;SDS011;8021;48.022;11.812;2022-08-21T03:33:10;0.20;;;0.20;;
15841;SDS011;8021;48.022;11.812;2022-08-21T03:35:42;0.30;;;0.20;;
15841;SDS011;8021;48.022;11.812;2022-08-21T03:38:10;0.30;;;0.30;;
15841;SDS011;8021;48.022;11.812;2022-08-21T03:40:39;0.30;;;0.20;;
15841;SDS011;8021;48.022;11.812;2022-08-21T03:43:07;0.30;;;0.25;;
15841;SDS011;8021;48.022;11.812;2022-08-21T03:45:36;0.30;;;0.30;;
15841;SDS011;8021;48.022;11.812;2022-08-21T03:48:04;0.28;;;0.22;;
15841;SDS011;8021;48.022;11.812;2022-08-21T03:50:33;0.30;;;0.20;;
15841;SDS011;8021;48.022;11.812;2022-08-21T03:53:08;0.20;;;0.20;;
15841;SDS011;8021;48.022;11.812;2022-08-21T03:55:43;0.20;;;0.20;;
15841;SDS011;8021;48.022;11.812;2022-08-21T03:58:11;0.30;;;0.30;;
15841;SDS011;8021;48.022;11.812;2022-08-21T04:00:42;0.30;;;0.20;;
15841;SDS011;8021;48.022;11.812;2022-08-21T04:03:10;0.30;;;0.20;;
15841;SDS011;8021;48.022;11.812;2022-08-21T04:05:38;0.20;;;0.20;;
15841;SDS011;8021;48.022;11.812;2022-08-21T04:08:07;0.22;;;0.22;;
15841;SDS011;8021;48.022;11.812;2022-08-21T04:10:36;0.30;;;0.20;;
15841;SDS011;8021;48.022;11.812;2022-08-21T04:13:04;0.30;;;0.20;;
15841;SDS011;8021;48.022;11.812;2022-08-21T04:15:32;0.30;;;0.20;;
15841;SDS011;8021;48.022;11.812;2022-08-21T04:18:00;0.30;;;0.22;;
15841;SDS011;8021;48.022;11.812;2022-08-21T04:20:28;0.30;;;0.30;;
15841;SDS011;8021;48.022;11.812;2022-08-21T04:22:55;0.30;;;0.30;;
15841;SDS011;8021;48.022;11.812;2022-08-21T04:25:24;0.30;;;0.20;;
15841;SDS011;8021;48.022;11.812;2022-08-21T04:27:52;0.30;;;0.30;;
15841;SDS011;8021;48.022;11.812;2022-08-21T04:30:20;0.30;;;0.20;;
15841;SDS011;8021;48.022;11.812;2022-08-21T04:32:53;0.30;;;0.20;;
15841;SDS011;8021;48.022;11.812;2022-08-21T04:35:22;0.20;;;0.20;;
15841;SDS011;8021;48.022;11.812;2022-08-21T04:37:50;0.30;;;0.30;;
15841;SDS011;8021;48.022;11.812;2022-08-21T04:40:18;0.20;;;0.20;;
15841;SDS011;8021;48.022;11.812;2022-08-21T04:42:48;0.30;;;0.20;;
15841;SDS011;8021;48.022;11.812;2022-08-21T04:45:17;0.30;;;0.30;;
15841;SDS011;8021;48.022;11.812;2022-08-21T04:47:47;0.20;;;0.20;;
15841;SDS011;8021;48.022;11.812;2022-08-21T04:50:18;0.20;;;0.20;;
15841;SDS011;8021;48.022;11.812;2022-08-21T04:53:02;0.20;;;0.20;;
15841;SDS011;8021;48.022;11.812;2022-08-21T04:55:35;0.20;;;0.20;;
15841;SDS011;8021;48.022;11.812;2022-08-21T04:58:05;0.30;;;0.20;;
15841;SDS011;8021;48.022;11.812;2022-08-21T05:00:33;0.30;;;0.20;;
15841;SDS011;8021;48.022;11.812;2022-08-21T05:03:01;0.30;;;0.20;;
15841;SDS011;8021;48.022;11.812;2022-08-21T05:05:29;0.30;;;0.20;;
15841;SDS011;8021;48.022;11.812;2022-08-21T05:07:57;0.30;;;0.20;;
15841;SDS011;8021;48.022;11.812;2022-08-21T05:10:26;0.20;;;0.20;;
15841;SDS011;8021;48.022;11.812;2022-08-21T05:12:54;0.30;;;0.20;;
15841;SDS011;8021;48.022;11.812;2022-08-21T05:15:23;0.30;;;0.20;;
15841;SDS011;8021;48.022;11.812;2022-08-21T05:17:51;0.20;;;0.20;;
15841;SDS011;8021;48.022;11.812;2022-08-21T05:20:26;0.20;;;0.20;;
15841;SDS011;8021;48.022;11.812;2022-08-21T05:22:54;0.30;;;0.20;;
15841;SDS011;8021;48.022;11.812;2022-08-21T05:25:21;0.25;;;0.20;;
15841;SDS011;8021;48.022;11.812;2022-08-21T05:27:49;0.30;;;0.20;;
15841;SDS011;8021;48.022;11.812;2022-08-21T05:30:18;0.20;;;0.20;;
15841;SDS011;8021;48.022;11.812;2022-08-21T05:32:47;0.20;;;0.20;;
15841;SDS011;8021;48.022;11.812;2022-08-21T05:35:14;0.20;;;0.20;;
15841;SDS011;8021;48.022;11.812;2022-08-21T05:37:42;0.20;;;0.20;;
15841;SDS011;8021;48.022;11.812;2022-08-21T05:40:10;0.20;;;0.20;;
15841;SDS011;8021;48.022;11.812;2022-08-21T05:42:48;0.20;;;0.20;;
15841;SDS011;8021;48.022;11.812;2022-08-21T05:45:20;0.20;;;0.20;;
15841;SDS011;8021;48.022;11.812;2022-08-21T05:48:10;0.20;;;0.20;;
15841;SDS011;8021;48.022;11.812;2022-08-21T05:50:38;0.20;;;0.20;;
15841;SDS011;8021;48.022;11.812;2022-08-21T05:53:06;0.20;;;0.20;;
15841;SDS011;8021;48.022;11.812;2022-08-21T05:55:34;0.20;;;0.20;;
15841;SDS011;8021;48.022;11.812;2022-08-21T05:58:08;0.30;;;0.20;;
15841;SDS011;8021;48.022;11.812;2022-08-21T06:00:35;0.20;;;0.20;;
15841;SDS011;8021;48.022;11.812;2022-08-21T06:03:03;0.20;;;0.10;;
15841;SDS011;8021;48.022;11.812;2022-08-21T06:05:32;0.20;;;0.20;;
15841;SDS011;8021;48.022;11.812;2022-08-21T06:08:03;0.20;;;0.10;;
15841;SDS011;8021;48.022;11.812;2022-08-21T06:10:30;0.17;;;0.17;;
15841;SDS011;8021;48.022;11.812;2022-08-21T06:12:58;0.10;;;0.10;;
15841;SDS011;8021;48.022;11.812;2022-08-21T06:15:26;0.10;;;0.10;;
15841;SDS011;8021;48.022;11.812;2022-08-21T06:17:53;0.00;;;0.00;;
15841;SDS011;8021;48.022;11.812;2022-08-21T06:20:21;0.00;;;0.00;;
15841;SDS011;8021;48.022;11.812;2022-08-21T06:22:50;0.00;;;0.00;;
15841;SDS011;8021;48.022;11.812;2022-08-21T06:25:18;0.00;;;0.00;;
15841;SDS011;8021;48.022;11.812;2022-08-21T06:27:46;0.00;;;0.00;;
15841;SDS011;8021;48.022;11.812;2022-08-21T06:30:13;0.00;;;0.00;;
15841;SDS011;8021;48.022;11.812;2022-08-21T06:32:41;0.00;;;0.00;;
15841;SDS011;8021;48.022;11.812;2022-08-21T06:35:08;0.00;;;0.00;;
15841;SDS011;8021;48.022;11.812;2022-08-21T06:37:36;0.00;;;0.00;;
15841;SDS011;8021;48.022;11.812;2022-08-21T06:40:06;0.00;;;0.00;;
15841;SDS011;8021;48.022;11.812;2022-08-21T06:42:38;0.00;;;0.00;;
15841;SDS011;8021;48.022;11.812;2022-08-21T06:45:08;0.00;;;0.00;;
15841;SDS011;8021;48.022;11.812;2022-08-21T06:47:36;0.00;;;0.00;;
15841;SDS011;8021;48.022;11.812;2022-08-21T06:50:04;0.00;;;0.00;;
15841;SDS011;8021;48.022;11.812;2022-08-21T06:52:33;0.00;;;0.00;;
15841;SDS011;8021;48.022;11.812;2022-08-21T06:55:01;0.00;;;0.00;;
15841;SDS011;8021;48.022;11.812;2022-08-21T06:57:30;0.00;;;0.00;;
15841;SDS011;8021;48.022;11.812;2022-08-21T06:59:58;0.00;;;0.00;;
15841;SDS011;8021;48.022;11.812;2022-08-21T07:02:25;0.00;;;0.00;;
15841;SDS011;8021;48.022;11.812;2022-08-21T07:04:53;0.00;;;0.00;;
15841;SDS011;8021;48.022;11.812;2022-08-21T07:07:20;0.00;;;0.00;;
15841;SDS011;8021;48.022;11.812;2022-08-21T07:09:48;0.00;;;0.00;;
15841;SDS011;8021;48.022;11.812;2022-08-21T07:12:15;0.00;;;0.00;;
15841;SDS011;8021;48.022;11.812;2022-08-21T07:14:44;0.00;;;0.00;;
15841;SDS011;8021;48.022;11.812;2022-08-21T07:17:12;0.00;;;0.00;;
15841;SDS011;8021;48.022;11.812;2022-08-21T07:19:39;0.00;;;0.00;;
15841;SDS011;8021;48.022;11.812;2022-08-21T07:22:07;0.00;;;0.00;;
15841;SDS011;8021;48.022;11.812;2022-08-21T07:24:35;0.00;;;0.00;;
15841;SDS011;8021;48.022;11.812;2022-08-21T07:27:04;0.00;;;0.00;;
15841;SDS011;8021;48.022;11.812;2022-08-21T07:29:35;0.00;;;0.00;;
15841;SDS011;8021;48.022;11.812;2022-08-21T07:32:04;0.00;;;0.00;;
15841;SDS011;8021;48.022;11.812;2022-08-21T07:34:32;0.00;;;0.00;;
15841;SDS011;8021;48.022;11.812;2022-08-21T07:36:59;0.00;;;0.00;;
15841;SDS011;8021;48.022;11.812;2022-08-21T07:39:35;0.00;;;0.00;;
15841;SDS011;8021;48.022;11.812;2022-08-21T07:42:03;0.00;;;0.00;;
15841;SDS011;8021;48.022;11.812;2022-08-21T07:44:33;0.00;;;0.00;;
15841;SDS011;8021;48.022;11.812;2022-08-21T07:47:01;0.00;;;0.00;;
15841;SDS011;8021;48.022;11.812;2022-08-21T07:49:30;0.00;;;0.00;;
15841;SDS011;8021;48.022;11.812;2022-08-21T07:51:58;0.00;;;0.00;;
15841;SDS011;8021;48.022;11.812;2022-08-21T07:54:25;0.00;;;0.00;;
15841;SDS011;8021;48.022;11.812;2022-08-21T07:57:00;0.00;;;0.00;;
15841;SDS011;8021;48.022;11.812;2022-08-21T07:59:28;0.00;;;0.00;;
15841;SDS011;8021;48.022;11.812;2022-08-21T08:01:55;0.00;;;0.00;;
15841;SDS011;8021;48.022;11.812;2022-08-21T08:04:23;0.00;;;0.00;;
15841;SDS011;8021;48.022;11.812;2022-08-21T08:06:53;0.00;;;0.00;;
15841;SDS011;8021;48.022;11.812;2022-08-21T08:09:20;0.00;;;0.00;;
15841;SDS011;8021;48.022;11.812;2022-08-21T08:11:48;0.00;;;0.00;;
15841;SDS011;8021;48.022;11.812;2022-08-21T08:14:15;0.00;;;0.00;;
15841;SDS011;8021;48.022;11.812;2022-08-21T08:16:43;0.00;;;0.00;;
15841;SDS011;8021;48.022;11.812;2022-08-21T08:19:11;0.00;;;0.00;;
15841;SDS011;8021;48.022;11.812;2022-08-21T08:21:39;0.00;;;0.00;;
15841;SDS011;8021;48.022;11.812;2022-08-21T08:24:07;0.00;;;0.00;;
15841;SDS011;8021;48.022;11.812;2022-08-21T08:26:45;0.00;;;0.00;;
15841;SDS011;8021;48.022;11.812;2022-08-21T08:29:19;0.00;;;0.00;;
15841;SDS011;8021;48.022;11.812;2022-08-21T08:31:47;0.00;;;0.00;;
15841;SDS011;8021;48.022;11.812;2022-08-21T08:34:14;0.00;;;0.00;;
15841;SDS011;8021;48.022;11.812;2022-08-21T08:36:50;0.00;;;0.00;;
15841;SDS011;8021;48.022;11.812;2022-08-21T08:39:20;0.00;;;0.00;;
15841;SDS011;8021;48.022;11.812;2022-08-21T08:41:56;0.00;;;0.00;;
15841;SDS011;8021;48.022;11.812;2022-08-21T08:44:26;0.00;;;0.00;;
15841;SDS011;8021;48.022;11.812;2022-08-21T08:46:55;0.00;;;0.00;;
15841;SDS011;8021;48.022;11.812;2022-08-21T08:49:27;0.00;;;0.00;;
15841;SDS011;8021;48.022;11.812;2022-08-21T08:51:59;0.00;;;0.00;;
15841;SDS011;8021;48.022;11.812;2022-08-21T08:54:31;0.00;;;0.00;;
15841;SDS011;8021;48.022;11.812;2022-08-21T08:57:00;0.00;;;0.00;;
15841;SDS011;8021;48.022;11.812;2022-08-21T08:59:32;0.00;;;0.00;;
15841;SDS011;8021;48.022;11.812;2022-08-21T09:02:01;0.00;;;0.00;;
15841;SDS011;8021;48.022;11.812;2022-08-21T09:04:28;0.00;;;0.00;;
15841;SDS011;8021;48.022;11.812;2022-08-21T09:06:59;0.00;;;0.00;;
15841;SDS011;8021;48.022;11.812;2022-08-21T09:09:40;0.00;;;0.00;;
15841;SDS011;8021;48.022;11.812;2022-08-21T09:12:10;0.00;;;0.00;;
15841;SDS011;8021;48.022;11.812;2022-08-21T09:14:43;0.00;;;0.00;;
15841;SDS011;8021;48.022;11.812;2022-08-21T09:17:26;0.00;;;0.00;;
15841;SDS011;8021;48.022;11.812;2022-08-21T09:20:00;0.00;;;0.00;;
15841;SDS011;8021;48.022;11.812;2022-08-21T09:22:32;0.00;;;0.00;;
15841;SDS011;8021;48.022;11.812;2022-08-21T09:25:05;0.00;;;0.00;;
15841;SDS011;8021;48.022;11.812;2022-08-21T09:27:34;0.00;;;0.00;;
15841;SDS011;8021;48.022;11.812;2022-08-21T09:30:03;0.00;;;0.00;;
15841;SDS011;8021;48.022;11.812;2022-08-21T09:32:32;0.00;;;0.00;;
15841;SDS011;8021;48.022;11.812;2022-08-21T09:35:04;0.00;;;0.00;;
15841;SDS011;8021;48.022;11.812;2022-08-21T09:37:33;0.00;;;0.00;;
15841;SDS011;8021;48.022;11.812;2022-08-21T09:40:02;0.00;;;0.00;;
15841;SDS011;8021;48.022;11.812;2022-08-21T09:42:53;0.00;;;0.00;;
15841;SDS011;8021;48.022;11.812;2022-08-21T09:45:21;0.00;;;0.00;;
15841;SDS011;8021;48.022;11.812;2022-08-21T09:47:48;0.00;;;0.00;;
15841;SDS011;8021;48.022;11.812;2022-08-21T09:50:17;0.00;;;0.00;;
15841;SDS011;8021;48.022;11.812;2022-08-21T09:52:46;0.00;;;0.00;;
15841;SDS011;8021;48.022;11.812;2022-08-21T09:55:20;0.00;;;0.00;;
15841;SDS011;8021;48.022;11.812;2022-08-21T09:58:08;0.00;;;0.00;;
15841;SDS011;8021;48.022;11.812;2022-08-21T10:00:36;0.00;;;0.00;;
15841;SDS011;8021;48.022;11.812;2022-08-21T10:03:07;0.10;;;0.03;;
15841;SDS011;8021;48.022;11.812;2022-08-21T10:05:35;0.00;;;0.00;;
15841;SDS011;8021;48.022;11.812;2022-08-21T10:08:04;0.00;;;0.00;;
15841;SDS011;8021;48.022;11.812;2022-08-21T10:10:35;0.10;;;0.00;;
15841;SDS011;8021;48.022;11.812;2022-08-21T10:13:06;0.03;;;0.03;;
15841;SDS011;8021;48.022;11.812;2022-08-21T10:15:40;0.10;;;0.10;;
15841;SDS011;8021;48.022;11.812;2022-08-21T10:18:11;0.10;;;0.03;;
15841;SDS011;8021;48.022;11.812;2022-08-21T10:20:43;0.00;;;0.00;;
15841;SDS011;8021;48.022;11.812;2022-08-21T10:23:18;0.10;;;0.10;;
15841;SDS011;8021;48.022;11.812;2022-08-21T10:25:49;0.00;;;0.00;;
15841;SDS011;8021;48.022;11.812;2022-08-21T10:28:31;0.10;;;0.10;;
15841;SDS011;8021;48.022;11.812;2022-08-21T10:31:07;0.00;;;0.00;;
15841;SDS011;8021;48.022;11.812;2022-08-21T10:33:38;0.00;;;0.00;;
15841;SDS011;8021;48.022;11.812;2022-08-21T10:36:12;0.00;;;0.00;;
15841;SDS011;8021;48.022;11.812;2022-08-21T10:38:52;0.10;;;0.05;;
15841;SDS011;8021;48.022;11.812;2022-08-21T10:41:44;0.00;;;0.00;;
15841;SDS011;8021;48.022;11.812;2022-08-21T10:44:17;0.00;;;0.00;;
15841;SDS011;8021;48.022;11.812;2022-08-21T10:46:53;0.10;;;0.10;;
15841;SDS011;8021;48.022;11.812;2022-08-21T10:49:25;0.03;;;0.03;;
15841;SDS011;8021;48.022;11.812;2022-08-21T10:51:58;0.10;;;0.10;;
15841;SDS011;8021;48.022;11.812;2022-08-21T10:54:31;0.10;;;0.00;;
15841;SDS011;8021;48.022;11.812;2022-08-21T10:57:04;0.00;;;0.00;;
15841;SDS011;8021;48.022;11.812;2022-08-21T10:59:33;0.00;;;0.00;;
15841;SDS011;8021;48.022;11.812;2022-08-21T11:02:08;0.10;;;0.10;;
15841;SDS011;8021;48.022;11.812;2022-08-21T11:04:43;0.00;;;0.00;;
15841;SDS011;8021;48.022;11.812;2022-08-21T11:07:16;0.00;;;0.00;;
15841;SDS011;8021;48.022;11.812;2022-08-21T11:09:45;0.00;;;0.00;;
15841;SDS011;8021;48.022;11.812;2022-08-21T11:12:17;0.00;;;0.00;;
15841;SDS011;8021;48.022;11.812;2022-08-21T11:14:52;0.10;;;0.10;;
15841;SDS011;8021;48.022;11.812;2022-08-21T11:17:27;0.00;;;0.00;;
15841;SDS011;8021;48.022;11.812;2022-08-21T11:19:59;0.10;;;0.10;;
15841;SDS011;8021;48.022;11.812;2022-08-21T11:22:31;0.10;;;0.10;;
15841;SDS011;8021;48.022;11.812;2022-08-21T11:25:03;0.10;;;0.10;;
15841;SDS011;8021;48.022;11.812;2022-08-21T11:27:36;0.10;;;0.10;;
15841;SDS011;8021;48.022;11.812;2022-08-21T11:30:05;0.10;;;0.10;;
15841;SDS011;8021;48.022;11.812;2022-08-21T11:35:19;0.10;;;0.10;;
15841;SDS011;8021;48.022;11.812;2022-08-21T11:37:53;0.00;;;0.00;;
15841;SDS011;8021;48.022;11.812;2022-08-21T11:40:26;0.10;;;0.10;;
15841;SDS011;8021;48.022;11.812;2022-08-21T11:43:00;0.10;;;0.05;;
15841;SDS011;8021;48.022;11.812;2022-08-21T11:45:32;0.10;;;0.10;;
15841;SDS011;8021;48.022;11.812;2022-08-21T11:48:05;0.08;;;0.08;;
15841;SDS011;8021;48.022;11.812;2022-08-21T11:50:37;0.08;;;0.08;;
15841;SDS011;8021;48.022;11.812;2022-08-21T11:53:07;0.00;;;0.00;;
15841;SDS011;8021;48.022;11.812;2022-08-21T11:55:37;0.10;;;0.10;;
15841;SDS011;8021;48.022;11.812;2022-08-21T11:58:07;0.10;;;0.10;;
15841;SDS011;8021;48.022;11.812;2022-08-21T12:00:36;0.10;;;0.10;;
15841;SDS011;8021;48.022;11.812;2022-08-21T12:03:07;0.10;;;0.10;;
15841;SDS011;8021;48.022;11.812;2022-08-21T12:05:37;0.10;;;0.10;;
15841;SDS011;8021;48.022;11.812;2022-08-21T12:08:09;0.10;;;0.00;;
15841;SDS011;8021;48.022;11.812;2022-08-21T12:10:38;0.10;;;0.10;;
15841;SDS011;8021;48.022;11.812;2022-08-21T12:13:08;0.10;;;0.00;;
15841;SDS011;8021;48.022;11.812;2022-08-21T12:15:37;0.10;;;0.10;;
15841;SDS011;8021;48.022;11.812;2022-08-21T12:18:06;0.10;;;0.10;;
15841;SDS011;8021;48.022;11.812;2022-08-21T12:20:37;0.10;;;0.10;;
15841;SDS011;8021;48.022;11.812;2022-08-21T12:23:24;0.10;;;0.10;;
15841;SDS011;8021;48.022;11.812;2022-08-21T12:25:59;0.10;;;0.10;;
15841;SDS011;8021;48.022;11.812;2022-08-21T12:28:27;0.00;;;0.00;;
15841;SDS011;8021;48.022;11.812;2022-08-21T12:30:56;0.10;;;0.08;;
15841;SDS011;8021;48.022;11.812;2022-08-21T12:33:25;0.10;;;0.10;;
15841;SDS011;8021;48.022;11.812;2022-08-21T12:36:01;0.10;;;0.10;;
15841;SDS011;8021;48.022;11.812;2022-08-21T12:38:29;0.10;;;0.10;;
15841;SDS011;8021;48.022;11.812;2022-08-21T12:41:00;0.10;;;0.10;;
15841;SDS011;8021;48.022;11.812;2022-08-21T12:43:28;0.00;;;0.00;;
15841;SDS011;8021;48.022;11.812;2022-08-21T12:45:57;0.00;;;0.00;;
15841;SDS011;8021;48.022;11.812;2022-08-21T12:48:31;0.10;;;0.00;;
15841;SDS011;8021;48.022;11.812;2022-08-21T12:51:06;0.10;;;0.10;;
15841;SDS011;8021;48.022;11.812;2022-08-21T12:53:38;0.10;;;0.10;;
15841;SDS011;8021;48.022;11.812;2022-08-21T12:56:08;0.10;;;0.10;;
15841;SDS011;8021;48.022;11.812;2022-08-21T12:58:39;0.10;;;0.10;;
15841;SDS011;8021;48.022;11.812;2022-08-21T13:01:08;0.00;;;0.00;;
15841;SDS011;8021;48.022;11.812;2022-08-21T13:03:40;0.10;;;0.10;;
15841;SDS011;8021;48.022;11.812;2022-08-21T13:06:12;0.10;;;0.10;;
15841;SDS011;8021;48.022;11.812;2022-08-21T13:08:41;0.00;;;0.00;;
15841;SDS011;8021;48.022;11.812;2022-08-21T13:11:13;0.10;;;0.10;;
15841;SDS011;8021;48.022;11.812;2022-08-21T13:13:58;0.00;;;0.00;;
15841;SDS011;8021;48.022;11.812;2022-08-21T13:16:30;0.00;;;0.00;;
15841;SDS011;8021;48.022;11.812;2022-08-21T13:19:01;0.03;;;0.00;;
15841;SDS011;8021;48.022;11.812;2022-08-21T13:21:33;0.10;;;0.10;;
15841;SDS011;8021;48.022;11.812;2022-08-21T13:24:08;0.00;;;0.00;;
15841;SDS011;8021;48.022;11.812;2022-08-21T13:26:57;0.08;;;0.08;;
15841;SDS011;8021;48.022;11.812;2022-08-21T13:29:27;0.00;;;0.00;;
15841;SDS011;8021;48.022;11.812;2022-08-21T13:31:58;0.10;;;0.10;;
15841;SDS011;8021;48.022;11.812;2022-08-21T13:34:33;0.10;;;0.10;;
15841;SDS011;8021;48.022;11.812;2022-08-21T13:37:03;0.10;;;0.10;;
15841;SDS011;8021;48.022;11.812;2022-08-21T13:39:31;0.00;;;0.00;;
15841;SDS011;8021;48.022;11.812;2022-08-21T13:42:00;0.05;;;0.05;;
15841;SDS011;8021;48.022;11.812;2022-08-21T13:44:32;0.10;;;0.10;;
15841;SDS011;8021;48.022;11.812;2022-08-21T13:47:02;0.00;;;0.00;;
15841;SDS011;8021;48.022;11.812;2022-08-21T13:49:30;0.10;;;0.10;;
15841;SDS011;8021;48.022;11.812;2022-08-21T13:51:58;0.03;;;0.03;;
15841;SDS011;8021;48.022;11.812;2022-08-21T13:54:29;0.10;;;0.10;;
15841;SDS011;8021;48.022;11.812;2022-08-21T13:56:56;0.05;;;0.05;;
15841;SDS011;8021;48.022;11.812;2022-08-21T13:59:28;0.00;;;0.00;;
15841;SDS011;8021;48.022;11.812;2022-08-21T14:01:57;0.10;;;0.10;;
15841;SDS011;8021;48.022;11.812;2022-08-21T14:04:29;0.10;;;0.10;;
15841;SDS011;8021;48.022;11.812;2022-08-21T14:06:58;0.10;;;0.10;;
15841;SDS011;8021;48.022;11.812;2022-08-21T14:09:28;0.00;;;0.00;;
15841;SDS011;8021;48.022;11.812;2022-08-21T14:11:57;0.10;;;0.10;;
15841;SDS011;8021;48.022;11.812;2022-08-21T14:14:26;0.10;;;0.10;;
15841;SDS011;8021;48.022;11.812;2022-08-21T14:16:57;0.10;;;0.10;;
15841;SDS011;8021;48.022;11.812;2022-08-21T14:19:37;0.08;;;0.08;;
15841;SDS011;8021;48.022;11.812;2022-08-21T14:22:21;0.00;;;0.00;;
15841;SDS011;8021;48.022;11.812;2022-08-21T14:24:51;0.00;;;0.00;;
15841;SDS011;8021;48.022;11.812;2022-08-21T14:27:28;0.10;;;0.10;;
15841;SDS011;8021;48.022;11.812;2022-08-21T14:29:58;0.08;;;0.08;;
15841;SDS011;8021;48.022;11.812;2022-08-21T14:32:27;0.10;;;0.10;;
15841;SDS011;8021;48.022;11.812;2022-08-21T14:34:58;0.00;;;0.00;;
15841;SDS011;8021;48.022;11.812;2022-08-21T14:37:25;0.10;;;0.10;;
15841;SDS011;8021;48.022;11.812;2022-08-21T14:39:59;0.10;;;0.10;;
15841;SDS011;8021;48.022;11.812;2022-08-21T14:42:28;0.05;;;0.05;;
15841;SDS011;8021;48.022;11.812;2022-08-21T14:44:57;0.10;;;0.10;;
15841;SDS011;8021;48.022;11.812;2022-08-21T14:47:25;0.10;;;0.10;;
15841;SDS011;8021;48.022;11.812;2022-08-21T14:49:54;0.10;;;0.10;;
15841;SDS011;8021;48.022;11.812;2022-08-21T14:52:22;0.10;;;0.10;;
15841;SDS011;8021;48.022;11.812;2022-08-21T14:54:50;0.10;;;0.10;;
15841;SDS011;8021;48.022;11.812;2022-08-21T14:57:18;0.10;;;0.10;;
15841;SDS011;8021;48.022;11.812;2022-08-21T14:59:46;0.10;;;0.10;;
15841;SDS011;8021;48.022;11.812;2022-08-21T15:02:14;0.10;;;0.10;;
15841;SDS011;8021;48.022;11.812;2022-08-21T15:04:42;0.10;;;0.10;;
15841;SDS011;8021;48.022;11.812;2022-08-21T15:07:10;0.10;;;0.10;;
15841;SDS011;8021;48.022;11.812;2022-08-21T15:09:37;0.10;;;0.10;;